Auburn, MI

12:44 PM EST on December 25, 2014 (GMT -0500)
Auburn | Change Station
CLOSE
Current Station
Personal Weather Station
Location: Auburn, MI
Elevation: 636 ft
Nearby Weather Stations

Elev 636 ft 43.60 °N, 84.11 °W | Updated 47 seconds ago

Overcast
Overcast
36.1 °F
Feels Like 29 °F
N
9.2
Wind Variable Wind from SW
Gusts 11.4 mph

Today
High -- | Low -- °F
--% Chance of Precip.
Yesterday
High -- | Low -- °F
Precip. -- in
8:08 AM 5:04 PM
Waxing Crescent, 18% visible
Pressure 29.89 in
Visibility 10.0 miles
Clouds Overcast 2600 ft
Windchill 29 °F
Dew Point 27 °F
Humidity 68%
Rainfall 0.14 in
Snow Depth Not available.
UV 1 out of 12
Pollen .10 out of 12
Air Quality Not available.
Flu Activity Not available.
METAR KMBS 251653Z 24011KT 10SM OVC026 03/M01 A2987 RMK AO2 SLP121 T00331011

More Conditions Fewer Conditions

Pressure 29.89 in
Visibility 10.0 miles
Clouds Overcast 2600 ft
Windchill 29 °F
Dew Point 27 °F
Humidity 68%
Rainfall 0.14 in
Snow Depth Not available.
UV 1 out of 12
Pollen .10 out of 12
Air Quality Not available.
Flu Activity Not available.
METAR KMBS 251653Z 24011KT 10SM OVC026 03/M01 A2987 RMK AO2 SLP121 T00331011

More Conditions Fewer Conditions

10-Day Weather Forecast

Almanac

Astronomy

Dec. 25, 2014 Rise Set
Actual Time
Civil Twilight
Nautical Twilight
Astronomical Twilight
Moon
Length of Visible Light
Length of Day
Tomorrow will be .
, % of the Moon is Illuminated

Today's Extremes

State Highs State Lows

Community

WunderPhotos

Upload Photos

1,780,351 photos uploaded!

WunderBlogs® & News

Nearby

Air Quality

  Air Quality AQ Index Pollutant
Not available.

Snow Depth

Station Depth Elevation

Earthquake Activity

City Distance Mag. Time & Date
Minimum magnitude displayed is 2.5.

Coastal Water Temperatures

Place Temperature

Nearby Weather Stations